createdAt,value
2022-10-19T00:00:16.965Z,80
2022-10-19T00:10:25.988Z,80
2022-10-19T00:20:34.969Z,80
2022-10-19T00:30:43.930Z,81
2022-10-19T00:40:52.184Z,81
2022-10-19T00:51:01.110Z,81
2022-10-19T01:01:09.926Z,81
2022-10-19T01:11:18.864Z,81
2022-10-19T01:21:27.705Z,80
2022-10-19T01:31:36.535Z,81
2022-10-19T01:41:45.386Z,81
2022-10-19T01:51:54.243Z,82
2022-10-19T02:02:03.807Z,81
2022-10-19T02:12:11.565Z,82
2022-10-19T02:22:21.410Z,83
2022-10-19T02:32:30.295Z,83
2022-10-19T02:42:39.124Z,84
2022-10-19T02:52:47.986Z,84
2022-10-19T03:02:56.815Z,84
2022-10-19T03:13:05.756Z,84
2022-10-19T03:23:14.581Z,84
2022-10-19T03:33:23.409Z,83
2022-10-19T03:43:32.358Z,84
2022-10-19T03:53:41.345Z,84
2022-10-19T04:03:49.804Z,84
2022-10-19T04:13:58.781Z,84
2022-10-19T04:24:07.649Z,85
2022-10-19T04:34:16.544Z,84
2022-10-19T04:44:25.577Z,84
2022-10-19T04:54:34.407Z,84
2022-10-19T05:04:44.419Z,84
2022-10-19T05:14:51.194Z,84
2022-10-19T05:24:59.842Z,84
2022-10-19T05:35:10.671Z,83
2022-10-19T05:45:09.478Z,83
2022-10-19T05:55:19.164Z,82
2022-10-19T06:05:28.835Z,81
2022-10-19T06:15:38.493Z,81
2022-10-19T06:25:42.551Z,80
2022-10-19T06:35:42.105Z,80
2022-10-19T06:45:54.271Z,80
2022-10-19T06:55:55.380Z,80
2022-10-19T07:05:54.843Z,80
2022-10-19T07:16:04.465Z,79
2022-10-19T07:26:13.446Z,80
2022-10-19T07:36:23.143Z,81
2022-10-19T07:46:32.726Z,79
2022-10-19T07:56:33.361Z,79
2022-10-19T08:06:37.139Z,78
2022-10-19T08:16:38.079Z,79
2022-10-19T08:26:48.544Z,78
2022-10-19T08:36:48.224Z,76
2022-10-19T08:46:57.989Z,74
2022-10-19T08:57:06.820Z,73
2022-10-19T09:07:18.397Z,72
2022-10-19T09:17:20.431Z,71
2022-10-19T09:27:20.200Z,69
2022-10-19T09:47:38.589Z,68
2022-10-19T09:57:48.018Z,67
2022-10-19T10:07:58.747Z,66
2022-10-19T10:17:58.455Z,65
2022-10-19T10:38:10.306Z,63
2022-10-19T10:58:26.776Z,64
2022-10-19T11:08:24.121Z,62
2022-10-19T11:18:33.634Z,61
2022-10-19T11:28:44.281Z,63
2022-10-19T11:38:46.280Z,65
2022-10-19T11:48:46.354Z,66
2022-10-19T11:58:56.241Z,67
2022-10-19T12:29:12.180Z,65
2022-10-19T12:39:11.702Z,66
2022-10-19T12:49:21.434Z,66
2022-10-19T12:59:31.086Z,65
2022-10-19T13:09:41.850Z,66
2022-10-19T13:19:43.199Z,65
2022-10-19T13:29:43.857Z,64
2022-10-19T13:39:47.515Z,64
2022-10-19T13:49:55.908Z,63
2022-10-19T14:00:00.170Z,62
2022-10-19T14:10:00.787Z,61
2022-10-19T14:20:01.927Z,61
2022-10-19T14:30:02.670Z,61
2022-10-19T14:40:06.150Z,62
2022-10-19T14:50:12.077Z,63
2022-10-19T15:00:14.324Z,63
2022-10-19T15:10:17.043Z,65
2022-10-19T15:20:23.209Z,66
2022-10-19T15:30:27.486Z,68
2022-10-19T15:40:25.795Z,69
2022-10-19T15:50:30.651Z,67
2022-10-19T16:00:36.280Z,68
2022-10-19T16:10:40.468Z,69
2022-10-19T16:20:50.140Z,70
2022-10-19T16:30:53.757Z,71
2022-10-19T16:41:00.109Z,71
2022-10-19T16:51:02.592Z,71
2022-10-19T17:01:06.744Z,71
2022-10-19T17:11:11.232Z,71
2022-10-19T17:21:17.352Z,72
2022-10-19T17:31:26.518Z,72
2022-10-19T17:41:40.918Z,72
2022-10-19T17:51:41.374Z,72
2022-10-19T18:01:51.938Z,72
2022-10-19T18:11:48.380Z,72
2022-10-19T18:21:58.823Z,72
2022-10-19T18:32:07.094Z,72
2022-10-19T18:42:15.458Z,73
2022-10-19T18:52:17.909Z,73
2022-10-19T19:02:22.589Z,73
2022-10-19T19:12:33.021Z,73
2022-10-19T19:22:28.130Z,74
2022-10-19T19:32:35.367Z,73
2022-10-19T19:42:36.380Z,73
2022-10-19T19:52:48.414Z,73
2022-10-19T20:02:59.744Z,73
2022-10-19T20:12:59.191Z,73
2022-10-19T20:23:04.270Z,74
2022-10-19T20:33:11.447Z,77
2022-10-19T20:43:15.113Z,76
2022-10-19T20:53:27.123Z,76
2022-10-19T21:03:24.879Z,75
2022-10-19T21:13:26.361Z,76
2022-10-19T21:23:27.197Z,76
2022-10-19T21:33:30.668Z,76
2022-10-19T21:43:27.988Z,76
2022-10-19T21:53:34.430Z,76
2022-10-19T22:03:37.059Z,77
2022-10-19T22:13:41.330Z,76
2022-10-19T22:23:41.446Z,77
2022-10-19T22:33:50.522Z,77
2022-10-19T22:43:50.630Z,77
2022-10-19T22:53:59.608Z,78
2022-10-19T23:04:08.684Z,80
2022-10-19T23:14:17.677Z,80
2022-10-19T23:24:26.659Z,80
2022-10-19T23:44:43.093Z,80
2022-10-19T23:54:51.988Z,80
